Airfield :







YOU CAN JOIN US ON...

 
LOGIN :

Register | Disclaimer

   EN    FR    IT 

 









Legend :    VFR   Marginal VFR   IFR   Intensive IFR   Very Intensive IFR
Visi :
Ceiling :
>= 8 km
>= 3000ft
5 to 8 km
1000 to 3000 ft
1500m to 5 km
500 to 1000 ft
800 to 1500m
200 to 500 ft
< 800m
< 200 ft
Symbols :   Thunderstorms  Fog  Heavy snow  Heavy precipitations  Wind > 20 kt






- Airport Elevation : 626 ft


KCAR - Caribou Municipal

CURRENT METAR :
  • 252134Z AUTO 18008KT 2SM -SN BR SCT031 OVC040 M04/M07 A3024 RMK AO2 P0001 T10441067

EXPIRED METARs :
  • 252113Z AUTO 17007KT 2 1/2SM -SN BKN027 BKN040 OVC048 M04/M07 A3024 RMK AO2 P0000 T10441072
  • 252049Z AUTO 16005KT 1 3/4SM -SN BR BKN029 OVC055 M05/M07 A3026 RMK AO2 SLP261 P0002 60009 T10501072 56022
  • 252034Z AUTO 17007KT 2SM -SN BR BKN033 OVC050 M05/M07 A3026 RMK AO2 P0001 T10501072
  • 251954Z AUTO 17008KT 1SM -SN BR VV015 M06/M08 A3027 RMK AO2 SLP267 P0003 T10561078
  • 251854Z AUTO 16010KT 3/4SM -SN BR VV012 M06/M08 A3029 RMK AO2 SLP274 P0004 T10611083

TAF KCAR
Valid from the 25 at 18:00 until the 26 at 18:00 UTC


251735Z 2518/2618 17009KT 1SM -SN OVC010
TEMPO 2518/2522 1/2SM SN
FM260300 18005KT 3SM -SN OVC008
FM260600 00000KT 1SM BR OVC020
FM261200 00000KT P6SM BKN029
FM261500 09003KT P6SM VCSH OVC004
KZBW FIR / North America



MET'MAP, your aeronautical weather chart ! - Copyright ORBIFLY December 2007 - Disclaimer

ORBIFLY MET'MAP TEAM :

Programming & Development : Alexandra Zaïnal
Concept & original design : Baudouin d'Aumeries
Assistance for programming : Marc-Olivier Méhu
Technical & hardware support : Manuel Goepfert

Contact : metmap@orbifly.com




SOURCES & CREDITS :

   NOAA